sensor_id;sensor_type;location;lat;lon;timestamp;pressure;altitude;pressure_sealevel;temperature;humidity
70916;BME280;58557;50.982;-3.222;2023-02-20T00:02:25;102128.68;;;6.97;76.52
70916;BME280;58557;50.982;-3.222;2023-02-20T00:04:50;102131.09;;;7.39;72.87
70916;BME280;58557;50.982;-3.222;2023-02-20T00:07:16;102124.49;;;7.83;72.61
70916;BME280;58557;50.982;-3.222;2023-02-20T00:09:41;102115.85;;;8.20;69.78
70916;BME280;58557;50.982;-3.222;2023-02-20T00:12:07;102114.08;;;8.62;69.21
70916;BME280;58557;50.982;-3.222;2023-02-20T00:14:32;102115.21;;;7.49;72.31
70916;BME280;58557;50.982;-3.222;2023-02-20T00:16:58;102109.11;;;8.08;70.99
70916;BME280;58557;50.982;-3.222;2023-02-20T00:19:23;102109.53;;;8.42;69.58
70916;BME280;58557;50.982;-3.222;2023-02-20T00:21:49;102109.83;;;8.64;68.19
70916;BME280;58557;50.982;-3.222;2023-02-20T00:24:14;102106.07;;;9.39;64.47
70916;BME280;58557;50.982;-3.222;2023-02-20T00:26:45;102107.23;;;8.43;68.22
70916;BME280;58557;50.982;-3.222;2023-02-20T00:29:04;102108.02;;;9.05;65.32
70916;BME280;58557;50.982;-3.222;2023-02-20T00:31:30;102110.80;;;9.59;65.13
70916;BME280;58557;50.982;-3.222;2023-02-20T00:33:55;102112.97;;;7.45;70.90
70916;BME280;58557;50.982;-3.222;2023-02-20T00:36:21;102109.11;;;8.24;68.86
70916;BME280;58557;50.982;-3.222;2023-02-20T00:38:46;102112.29;;;7.34;70.32
70916;BME280;58557;50.982;-3.222;2023-02-20T00:41:13;102104.38;;;8.04;69.36
70916;BME280;58557;50.982;-3.222;2023-02-20T00:43:37;102097.49;;;8.00;67.30
70916;BME280;58557;50.982;-3.222;2023-02-20T00:46:03;102100.74;;;8.73;66.34
70916;BME280;58557;50.982;-3.222;2023-02-20T00:48:28;102094.35;;;8.00;68.39
70916;BME280;58557;50.982;-3.222;2023-02-20T00:50:54;102102.64;;;7.34;70.74
70916;BME280;58557;50.982;-3.222;2023-02-20T00:53:19;102094.90;;;8.13;68.35
70916;BME280;58557;50.982;-3.222;2023-02-20T00:55:45;102094.23;;;8.36;66.10
70916;BME280;58557;50.982;-3.222;2023-02-20T00:58:10;102091.51;;;9.41;62.97
70916;BME280;58557;50.982;-3.222;2023-02-20T01:00:35;102091.04;;;9.81;62.63
70916;BME280;58557;50.982;-3.222;2023-02-20T01:03:01;102088.87;;;9.15;65.27
70916;BME280;58557;50.982;-3.222;2023-02-20T01:05:26;102090.91;;;10.21;61.31
70916;BME280;58557;50.982;-3.222;2023-02-20T01:07:51;102088.02;;;9.06;65.20
70916;BME280;58557;50.982;-3.222;2023-02-20T01:10:16;102087.48;;;8.21;65.55
70916;BME280;58557;50.982;-3.222;2023-02-20T01:12:42;102088.71;;;8.79;65.06
70916;BME280;58557;50.982;-3.222;2023-02-20T01:15:10;102091.00;;;8.56;65.42
70916;BME280;58557;50.982;-3.222;2023-02-20T01:17:34;102088.88;;;8.89;64.50
70916;BME280;58557;50.982;-3.222;2023-02-20T01:20:00;102090.34;;;9.24;64.91
70916;BME280;58557;50.982;-3.222;2023-02-20T01:22:25;102082.54;;;7.86;66.91
70916;BME280;58557;50.982;-3.222;2023-02-20T01:24:51;102081.98;;;9.35;65.51
70916;BME280;58557;50.982;-3.222;2023-02-20T01:27:16;102080.12;;;9.23;64.61
70916;BME280;58557;50.982;-3.222;2023-02-20T01:29:41;102082.53;;;7.37;68.91
70916;BME280;58557;50.982;-3.222;2023-02-20T01:32:06;102079.50;;;9.30;63.60
70916;BME280;58557;50.982;-3.222;2023-02-20T01:34:31;102080.89;;;8.67;67.13
70916;BME280;58557;50.982;-3.222;2023-02-20T01:36:57;102083.77;;;7.56;69.20
70916;BME280;58557;50.982;-3.222;2023-02-20T01:39:24;102080.39;;;8.70;66.74
70916;BME280;58557;50.982;-3.222;2023-02-20T01:41:50;102078.66;;;8.94;66.86
70916;BME280;58557;50.982;-3.222;2023-02-20T01:44:18;102075.66;;;10.19;59.96
70916;BME280;58557;50.982;-3.222;2023-02-20T01:46:46;102080.66;;;10.12;61.14
70916;BME280;58557;50.982;-3.222;2023-02-20T01:49:05;102079.50;;;9.00;61.41
70916;BME280;58557;50.982;-3.222;2023-02-20T01:51:32;102085.23;;;7.12;68.21
70916;BME280;58557;50.982;-3.222;2023-02-20T01:53:54;102079.73;;;6.63;72.75
70916;BME280;58557;50.982;-3.222;2023-02-20T01:56:20;102076.52;;;6.63;77.98
70916;BME280;58557;50.982;-3.222;2023-02-20T01:58:49;102073.64;;;7.66;69.68
70916;BME280;58557;50.982;-3.222;2023-02-20T02:01:12;102074.82;;;7.43;71.11
70916;BME280;58557;50.982;-3.222;2023-02-20T02:03:40;102072.80;;;7.49;71.12
70916;BME280;58557;50.982;-3.222;2023-02-20T02:06:06;102064.05;;;8.14;68.54
70916;BME280;58557;50.982;-3.222;2023-02-20T02:08:28;102071.58;;;6.76;73.07
70916;BME280;58557;50.982;-3.222;2023-02-20T02:10:58;102066.39;;;7.10;72.06
70916;BME280;58557;50.982;-3.222;2023-02-20T02:13:19;102060.29;;;9.46;64.01
70916;BME280;58557;50.982;-3.222;2023-02-20T02:15:44;102057.01;;;9.32;65.87
70916;BME280;58557;50.982;-3.222;2023-02-20T02:18:20;102051.20;;;8.82;66.45
70916;BME280;58557;50.982;-3.222;2023-02-20T02:20:47;102056.79;;;7.81;72.14
70916;BME280;58557;50.982;-3.222;2023-02-20T02:25:33;102052.88;;;7.39;73.50
70916;BME280;58557;50.982;-3.222;2023-02-20T02:35:20;102040.63;;;9.14;67.84
70916;BME280;58557;50.982;-3.222;2023-02-20T02:37:38;102034.61;;;8.43;70.54
70916;BME280;58557;50.982;-3.222;2023-02-20T02:40:02;102033.11;;;8.18;72.10
70916;BME280;58557;50.982;-3.222;2023-02-20T02:42:31;102033.52;;;6.66;77.13
70916;BME280;58557;50.982;-3.222;2023-02-20T02:44:53;102034.01;;;7.13;76.00
70916;BME280;58557;50.982;-3.222;2023-02-20T02:47:19;102026.66;;;7.79;72.13
70916;BME280;58557;50.982;-3.222;2023-02-20T02:49:46;102025.72;;;8.33;71.01
70916;BME280;58557;50.982;-3.222;2023-02-20T02:52:06;102022.73;;;7.07;75.72
70916;BME280;58557;50.982;-3.222;2023-02-20T02:54:30;102022.27;;;7.16;75.38
70916;BME280;58557;50.982;-3.222;2023-02-20T02:59:25;102021.43;;;7.36;73.65
70916;BME280;58557;50.982;-3.222;2023-02-20T03:01:51;102024.13;;;7.35;74.75
70916;BME280;58557;50.982;-3.222;2023-02-20T03:04:14;102017.94;;;7.84;72.43
70916;BME280;58557;50.982;-3.222;2023-02-20T03:06:42;102024.85;;;7.24;72.97
70916;BME280;58557;50.982;-3.222;2023-02-20T03:09:07;102023.80;;;6.81;75.82
70916;BME280;58557;50.982;-3.222;2023-02-20T03:11:31;102021.17;;;7.43;75.57
70916;BME280;58557;50.982;-3.222;2023-02-20T03:13:57;102023.81;;;6.82;79.48
70916;BME280;58557;50.982;-3.222;2023-02-20T03:16:26;102016.53;;;7.12;78.36
70916;BME280;58557;50.982;-3.222;2023-02-20T03:18:47;102012.98;;;7.07;77.99
70916;BME280;58557;50.982;-3.222;2023-02-20T03:21:16;102012.38;;;6.83;77.11
70916;BME280;58557;50.982;-3.222;2023-02-20T03:23:40;102012.94;;;7.07;78.20
70916;BME280;58557;50.982;-3.222;2023-02-20T03:26:06;102012.42;;;7.05;76.52
70916;BME280;58557;50.982;-3.222;2023-02-20T03:28:31;102007.54;;;7.44;76.05
70916;BME280;58557;50.982;-3.222;2023-02-20T03:30:59;102005.54;;;8.49;73.27
70916;BME280;58557;50.982;-3.222;2023-02-20T03:33:24;102003.07;;;8.86;71.25
70916;BME280;58557;50.982;-3.222;2023-02-20T03:35:47;101995.48;;;8.10;71.85
70916;BME280;58557;50.982;-3.222;2023-02-20T03:38:12;101998.45;;;7.23;76.87
70916;BME280;58557;50.982;-3.222;2023-02-20T03:40:37;101992.30;;;7.69;75.27
70916;BME280;58557;50.982;-3.222;2023-02-20T03:43:05;101990.02;;;7.80;76.44
70916;BME280;58557;50.982;-3.222;2023-02-20T03:45:28;101992.45;;;7.72;75.67
70916;BME280;58557;50.982;-3.222;2023-02-20T03:47:56;101997.48;;;6.95;79.05
70916;BME280;58557;50.982;-3.222;2023-02-20T03:50:18;101997.90;;;8.85;70.85
70916;BME280;58557;50.982;-3.222;2023-02-20T03:52:44;102001.33;;;9.08;70.81
70916;BME280;58557;50.982;-3.222;2023-02-20T03:55:09;102002.57;;;9.42;71.70
70916;BME280;58557;50.982;-3.222;2023-02-20T03:57:39;102001.65;;;8.66;69.51
70916;BME280;58557;50.982;-3.222;2023-02-20T04:00:02;102000.30;;;8.42;72.65
70916;BME280;58557;50.982;-3.222;2023-02-20T04:02:29;101999.95;;;8.68;69.21
70916;BME280;58557;50.982;-3.222;2023-02-20T04:04:53;101994.21;;;7.29;75.22
70916;BME280;58557;50.982;-3.222;2023-02-20T04:07:20;101997.86;;;8.24;71.91
70916;BME280;58557;50.982;-3.222;2023-02-20T04:09:44;101995.12;;;8.12;71.83
70916;BME280;58557;50.982;-3.222;2023-02-20T04:12:12;101995.07;;;9.33;69.65
70916;BME280;58557;50.982;-3.222;2023-02-20T04:14:34;101996.91;;;8.41;70.14
70916;BME280;58557;50.982;-3.222;2023-02-20T04:17:01;101995.37;;;9.01;70.20
70916;BME280;58557;50.982;-3.222;2023-02-20T04:19:24;101994.91;;;8.73;71.54
70916;BME280;58557;50.982;-3.222;2023-02-20T04:21:51;101989.77;;;8.09;73.79
70916;BME280;58557;50.982;-3.222;2023-02-20T04:24:20;101989.43;;;7.25;77.60
70916;BME280;58557;50.982;-3.222;2023-02-20T04:26:40;101986.76;;;8.72;73.90
70916;BME280;58557;50.982;-3.222;2023-02-20T04:29:06;101985.25;;;8.05;74.99
70916;BME280;58557;50.982;-3.222;2023-02-20T04:31:32;101984.11;;;8.11;74.80
70916;BME280;58557;50.982;-3.222;2023-02-20T04:33:57;101979.33;;;9.42;69.54
70916;BME280;58557;50.982;-3.222;2023-02-20T04:36:23;101976.41;;;9.57;69.49
70916;BME280;58557;50.982;-3.222;2023-02-20T04:38:47;101975.70;;;9.00;70.98
70916;BME280;58557;50.982;-3.222;2023-02-20T04:41:13;101973.40;;;9.74;67.26
70916;BME280;58557;50.982;-3.222;2023-02-20T04:43:38;101973.92;;;10.81;64.76
70916;BME280;58557;50.982;-3.222;2023-02-20T04:46:04;101968.96;;;9.75;65.20
70916;BME280;58557;50.982;-3.222;2023-02-20T04:48:29;101977.63;;;10.62;64.88
70916;BME280;58557;50.982;-3.222;2023-02-20T04:50:55;101977.41;;;10.79;65.28
70916;BME280;58557;50.982;-3.222;2023-02-20T04:53:20;101976.97;;;11.05;61.96
70916;BME280;58557;50.982;-3.222;2023-02-20T04:55:46;101973.33;;;9.56;65.32
70916;BME280;58557;50.982;-3.222;2023-02-20T04:58:11;101975.66;;;10.30;65.38
70916;BME280;58557;50.982;-3.222;2023-02-20T05:00:37;101978.60;;;10.65;64.51
70916;BME280;58557;50.982;-3.222;2023-02-20T05:03:02;101979.26;;;9.81;66.88
70916;BME280;58557;50.982;-3.222;2023-02-20T05:05:29;101978.64;;;10.13;66.60
70916;BME280;58557;50.982;-3.222;2023-02-20T05:07:55;101974.68;;;10.56;65.40
70916;BME280;58557;50.982;-3.222;2023-02-20T05:10:20;101975.63;;;11.09;63.90
70916;BME280;58557;50.982;-3.222;2023-02-20T05:12:44;101973.65;;;10.17;66.20
70916;BME280;58557;50.982;-3.222;2023-02-20T05:15:10;101972.00;;;10.04;65.92
70916;BME280;58557;50.982;-3.222;2023-02-20T05:17:35;101975.29;;;9.73;66.86
70916;BME280;58557;50.982;-3.222;2023-02-20T05:20:01;101975.59;;;10.83;64.28
70916;BME280;58557;50.982;-3.222;2023-02-20T05:22:26;101971.04;;;10.07;66.23
70916;BME280;58557;50.982;-3.222;2023-02-20T05:24:52;101968.39;;;11.60;61.72
70916;BME280;58557;50.982;-3.222;2023-02-20T05:27:18;101968.51;;;11.51;62.13
70916;BME280;58557;50.982;-3.222;2023-02-20T05:29:44;101963.28;;;11.21;60.95
70916;BME280;58557;50.982;-3.222;2023-02-20T05:32:08;101964.62;;;11.65;60.67
70916;BME280;58557;50.982;-3.222;2023-02-20T05:34:34;101956.47;;;12.09;58.09
70916;BME280;58557;50.982;-3.222;2023-02-20T05:36:58;101954.36;;;12.33;57.85
70916;BME280;58557;50.982;-3.222;2023-02-20T05:39:24;101951.08;;;11.67;59.46
70916;BME280;58557;50.982;-3.222;2023-02-20T05:41:49;101949.59;;;12.05;57.59
70916;BME280;58557;50.982;-3.222;2023-02-20T05:44:15;101952.46;;;11.39;59.51
70916;BME280;58557;50.982;-3.222;2023-02-20T05:46:41;101956.24;;;11.48;60.63
70916;BME280;58557;50.982;-3.222;2023-02-20T05:49:06;101953.35;;;12.37;57.69
70916;BME280;58557;50.982;-3.222;2023-02-20T05:51:31;101957.22;;;11.15;61.35
70916;BME280;58557;50.982;-3.222;2023-02-20T05:53:57;101957.65;;;10.92;63.17
70916;BME280;58557;50.982;-3.222;2023-02-20T05:56:22;101948.34;;;11.47;61.13
70916;BME280;58557;50.982;-3.222;2023-02-20T05:58:48;101942.57;;;11.59;60.29
70916;BME280;58557;50.982;-3.222;2023-02-20T06:01:18;101942.45;;;12.28;57.59
70916;BME280;58557;50.982;-3.222;2023-02-20T06:03:39;101939.67;;;12.91;56.19
70916;BME280;58557;50.982;-3.222;2023-02-20T06:06:04;101943.70;;;10.70;61.75
70916;BME280;58557;50.982;-3.222;2023-02-20T06:08:30;101940.65;;;12.31;58.02
70916;BME280;58557;50.982;-3.222;2023-02-20T06:10:55;101945.51;;;13.01;56.94
70916;BME280;58557;50.982;-3.222;2023-02-20T06:13:20;101949.19;;;13.05;56.02
70916;BME280;58557;50.982;-3.222;2023-02-20T06:15:45;101949.22;;;12.55;56.73
70916;BME280;58557;50.982;-3.222;2023-02-20T06:18:11;101949.24;;;12.66;56.62
70916;BME280;58557;50.982;-3.222;2023-02-20T06:20:36;101949.70;;;12.70;56.43
70916;BME280;58557;50.982;-3.222;2023-02-20T06:23:02;101944.93;;;13.39;55.13
70916;BME280;58557;50.982;-3.222;2023-02-20T06:25:27;101944.56;;;12.31;56.25
70916;BME280;58557;50.982;-3.222;2023-02-20T06:27:53;101945.51;;;12.62;55.63
70916;BME280;58557;50.982;-3.222;2023-02-20T06:30:19;101946.61;;;12.67;55.56
70916;BME280;58557;50.982;-3.222;2023-02-20T06:32:45;101944.33;;;12.87;56.78
70916;BME280;58557;50.982;-3.222;2023-02-20T06:35:09;101937.71;;;13.15;55.28
70916;BME280;58557;50.982;-3.222;2023-02-20T06:37:34;101934.54;;;13.26;55.32
70916;BME280;58557;50.982;-3.222;2023-02-20T06:40:00;101932.70;;;13.44;55.08
70916;BME280;58557;50.982;-3.222;2023-02-20T06:42:25;101932.28;;;13.52;53.33
70916;BME280;58557;50.982;-3.222;2023-02-20T06:44:50;101930.42;;;12.59;57.24
70916;BME280;58557;50.982;-3.222;2023-02-20T06:47:16;101928.61;;;11.77;59.09
70916;BME280;58557;50.982;-3.222;2023-02-20T06:49:41;101928.97;;;12.48;57.36
70916;BME280;58557;50.982;-3.222;2023-02-20T06:52:07;101930.41;;;12.43;57.27
70916;BME280;58557;50.982;-3.222;2023-02-20T06:54:32;101931.30;;;12.42;57.96
70916;BME280;58557;50.982;-3.222;2023-02-20T06:56:58;101929.63;;;11.86;57.89
70916;BME280;58557;50.982;-3.222;2023-02-20T06:59:23;101926.57;;;12.91;56.02
70916;BME280;58557;50.982;-3.222;2023-02-20T07:01:49;101925.16;;;13.11;55.48
70916;BME280;58557;50.982;-3.222;2023-02-20T07:04:15;101925.44;;;13.44;54.88
70916;BME280;58557;50.982;-3.222;2023-02-20T07:06:39;101927.63;;;13.20;53.97
70916;BME280;58557;50.982;-3.222;2023-02-20T07:09:05;101927.72;;;12.75;55.16
70916;BME280;58557;50.982;-3.222;2023-02-20T07:11:31;101928.42;;;13.11;54.98
70916;BME280;58557;50.982;-3.222;2023-02-20T07:13:57;101929.62;;;12.88;55.15
70916;BME280;58557;50.982;-3.222;2023-02-20T07:16:22;101931.54;;;13.60;54.18
70916;BME280;58557;50.982;-3.222;2023-02-20T07:18:48;101937.41;;;13.50;54.22
70916;BME280;58557;50.982;-3.222;2023-02-20T07:21:13;101937.22;;;13.38;54.61
70916;BME280;58557;50.982;-3.222;2023-02-20T07:23:39;101935.41;;;13.89;52.62
70916;BME280;58557;50.982;-3.222;2023-02-20T07:26:04;101935.41;;;13.62;53.56
70916;BME280;58557;50.982;-3.222;2023-02-20T07:28:29;101940.03;;;13.01;55.23
70916;BME280;58557;50.982;-3.222;2023-02-20T07:30:55;101942.06;;;13.61;52.95
70916;BME280;58557;50.982;-3.222;2023-02-20T07:33:20;101942.25;;;13.79;53.37
70916;BME280;58557;50.982;-3.222;2023-02-20T07:35:45;101941.65;;;13.19;54.38
70916;BME280;58557;50.982;-3.222;2023-02-20T07:38:12;101942.63;;;12.65;56.12
70916;BME280;58557;50.982;-3.222;2023-02-20T07:40:36;101941.08;;;12.18;58.01
70916;BME280;58557;50.982;-3.222;2023-02-20T07:43:02;101944.77;;;11.89;58.36
70916;BME280;58557;50.982;-3.222;2023-02-20T07:45:27;101945.02;;;11.93;59.19
70916;BME280;58557;50.982;-3.222;2023-02-20T07:47:53;101945.02;;;12.33;58.34
70916;BME280;58557;50.982;-3.222;2023-02-20T07:50:18;101950.12;;;11.57;60.44
70916;BME280;58557;50.982;-3.222;2023-02-20T07:52:45;101949.65;;;11.41;61.18
70916;BME280;58557;50.982;-3.222;2023-02-20T07:55:11;101952.12;;;11.46;62.50
70916;BME280;58557;50.982;-3.222;2023-02-20T07:57:36;101947.49;;;11.67;61.44
70916;BME280;58557;50.982;-3.222;2023-02-20T08:00:00;101955.52;;;11.58;62.61
70916;BME280;58557;50.982;-3.222;2023-02-20T08:02:26;101951.50;;;12.35;59.24
70916;BME280;58557;50.982;-3.222;2023-02-20T08:04:51;101953.28;;;11.77;59.93
70916;BME280;58557;50.982;-3.222;2023-02-20T08:07:17;101961.63;;;12.42;58.31
70916;BME280;58557;50.982;-3.222;2023-02-20T08:09:43;101962.21;;;11.69;59.76
70916;BME280;58557;50.982;-3.222;2023-02-20T08:12:08;101966.17;;;13.16;56.37
70916;BME280;58557;50.982;-3.222;2023-02-20T08:14:33;101970.51;;;13.51;56.04
70916;BME280;58557;50.982;-3.222;2023-02-20T08:16:59;101970.81;;;11.67;60.35
70916;BME280;58557;50.982;-3.222;2023-02-20T08:19:24;101967.38;;;12.98;57.62
70916;BME280;58557;50.982;-3.222;2023-02-20T08:21:49;101960.31;;;12.38;58.34
70916;BME280;58557;50.982;-3.222;2023-02-20T08:24:15;101960.61;;;12.14;58.32
70916;BME280;58557;50.982;-3.222;2023-02-20T08:26:42;101966.55;;;13.12;55.43
70916;BME280;58557;50.982;-3.222;2023-02-20T08:29:06;101970.03;;;12.15;59.74
70916;BME280;58557;50.982;-3.222;2023-02-20T08:31:31;101974.66;;;13.54;56.31
70916;BME280;58557;50.982;-3.222;2023-02-20T08:33:56;101971.85;;;12.20;58.05
70916;BME280;58557;50.982;-3.222;2023-02-20T08:36:22;101975.59;;;13.19;55.58
70916;BME280;58557;50.982;-3.222;2023-02-20T08:38:47;101974.87;;;13.06;54.75
70916;BME280;58557;50.982;-3.222;2023-02-20T08:41:13;101970.89;;;13.83;54.95
70916;BME280;58557;50.982;-3.222;2023-02-20T08:43:39;101973.78;;;12.90;56.54
70916;BME280;58557;50.982;-3.222;2023-02-20T08:46:05;101974.01;;;12.90;56.27
70916;BME280;58557;50.982;-3.222;2023-02-20T08:48:29;101976.06;;;12.72;58.17
70916;BME280;58557;50.982;-3.222;2023-02-20T08:50:55;101979.60;;;11.29;62.45
70916;BME280;58557;50.982;-3.222;2023-02-20T08:53:21;101974.26;;;11.76;61.34
70916;BME280;58557;50.982;-3.222;2023-02-20T08:55:48;101976.28;;;11.34;61.82
70916;BME280;58557;50.982;-3.222;2023-02-20T08:58:12;101969.37;;;12.66;58.90
70916;BME280;58557;50.982;-3.222;2023-02-20T09:00:38;101962.69;;;11.81;61.15
70916;BME280;58557;50.982;-3.222;2023-02-20T09:03:04;101964.61;;;13.11;59.72
70916;BME280;58557;50.982;-3.222;2023-02-20T09:05:29;101968.85;;;12.96;58.96
70916;BME280;58557;50.982;-3.222;2023-02-20T09:07:54;101966.46;;;13.93;56.57
70916;BME280;58557;50.982;-3.222;2023-02-20T09:10:21;101965.28;;;12.25;59.49
70916;BME280;58557;50.982;-3.222;2023-02-20T09:12:46;101964.68;;;11.72;62.76
70916;BME280;58557;50.982;-3.222;2023-02-20T09:15:12;101966.64;;;11.73;62.82
70916;BME280;58557;50.982;-3.222;2023-02-20T09:17:38;101970.21;;;12.12;61.43
70916;BME280;58557;50.982;-3.222;2023-02-20T09:20:04;101968.14;;;12.36;60.98
70916;BME280;58557;50.982;-3.222;2023-02-20T09:22:28;101969.16;;;11.71;62.75
70916;BME280;58557;50.982;-3.222;2023-02-20T09:24:54;101969.39;;;12.96;59.92
70916;BME280;58557;50.982;-3.222;2023-02-20T09:27:20;101964.66;;;12.16;62.14
70916;BME280;58557;50.982;-3.222;2023-02-20T09:29:46;101967.45;;;11.83;62.39
70916;BME280;58557;50.982;-3.222;2023-02-20T09:32:12;101970.03;;;11.54;62.11
70916;BME280;58557;50.982;-3.222;2023-02-20T09:34:38;101979.33;;;11.56;63.98
70916;BME280;58557;50.982;-3.222;2023-02-20T09:37:04;101970.48;;;12.14;62.58
70916;BME280;58557;50.982;-3.222;2023-02-20T09:39:29;101966.12;;;11.81;63.27
70916;BME280;58557;50.982;-3.222;2023-02-20T09:42:05;101967.87;;;11.38;64.71
70916;BME280;58557;50.982;-3.222;2023-02-20T09:44:25;101969.50;;;11.44;64.86
70916;BME280;58557;50.982;-3.222;2023-02-20T09:46:46;101964.38;;;11.90;64.66
70916;BME280;58557;50.982;-3.222;2023-02-20T09:49:13;101963.60;;;12.02;64.03
70916;BME280;58557;50.982;-3.222;2023-02-20T09:51:39;101960.56;;;12.35;62.77
70916;BME280;58557;50.982;-3.222;2023-02-20T09:54:05;101957.91;;;11.77;64.06
70916;BME280;58557;50.982;-3.222;2023-02-20T09:56:30;101960.09;;;11.83;65.13
70916;BME280;58557;50.982;-3.222;2023-02-20T09:58:59;101956.87;;;12.19;63.66
70916;BME280;58557;50.982;-3.222;2023-02-20T10:01:22;101959.27;;;10.80;65.72
70916;BME280;58557;50.982;-3.222;2023-02-20T10:03:53;101953.41;;;11.78;64.69
70916;BME280;58557;50.982;-3.222;2023-02-20T10:06:15;101960.64;;;11.24;66.08
70916;BME280;58557;50.982;-3.222;2023-02-20T10:08:36;101961.59;;;10.73;66.90
70916;BME280;58557;50.982;-3.222;2023-02-20T10:11:05;101952.52;;;12.37;62.66
70916;BME280;58557;50.982;-3.222;2023-02-20T10:13:37;101954.89;;;11.77;65.18
70916;BME280;58557;50.982;-3.222;2023-02-20T10:16:00;101957.45;;;11.17;66.27
70916;BME280;58557;50.982;-3.222;2023-02-20T10:18:26;101958.21;;;11.31;67.20
70916;BME280;58557;50.982;-3.222;2023-02-20T10:20:52;101957.71;;;11.49;67.67
70916;BME280;58557;50.982;-3.222;2023-02-20T10:23:18;101955.59;;;10.94;69.60
70916;BME280;58557;50.982;-3.222;2023-02-20T10:25:39;101966.28;;;11.43;67.40
70916;BME280;58557;50.982;-3.222;2023-02-20T10:28:05;101965.49;;;11.94;67.77
70916;BME280;58557;50.982;-3.222;2023-02-20T10:30:31;101965.24;;;12.23;64.41
70916;BME280;58557;50.982;-3.222;2023-02-20T10:32:56;101964.15;;;12.44;63.58
70916;BME280;58557;50.982;-3.222;2023-02-20T10:35:23;101960.36;;;12.14;66.09
70916;BME280;58557;50.982;-3.222;2023-02-20T10:37:47;101957.50;;;11.99;66.38
70916;BME280;58557;50.982;-3.222;2023-02-20T10:40:17;101958.14;;;11.66;66.00
70916;BME280;58557;50.982;-3.222;2023-02-20T10:42:40;101959.65;;;12.07;65.07
70916;BME280;58557;50.982;-3.222;2023-02-20T10:45:06;101958.02;;;12.69;64.63
70916;BME280;58557;50.982;-3.222;2023-02-20T10:47:30;101950.98;;;12.05;66.62
70916;BME280;58557;50.982;-3.222;2023-02-20T10:49:57;101942.47;;;11.93;66.58
70916;BME280;58557;50.982;-3.222;2023-02-20T10:52:23;101944.40;;;11.77;66.91
70916;BME280;58557;50.982;-3.222;2023-02-20T10:54:48;101944.51;;;12.01;66.83
70916;BME280;58557;50.982;-3.222;2023-02-20T10:57:15;101942.37;;;12.45;66.56
70916;BME280;58557;50.982;-3.222;2023-02-20T10:59:39;101944.33;;;13.14;65.12
70916;BME280;58557;50.982;-3.222;2023-02-20T11:02:04;101940.26;;;13.04;65.97
70916;BME280;58557;50.982;-3.222;2023-02-20T11:04:31;101939.87;;;12.69;64.90
70916;BME280;58557;50.982;-3.222;2023-02-20T11:06:56;101933.71;;;12.47;66.16
70916;BME280;58557;50.982;-3.222;2023-02-20T11:09:19;101933.16;;;12.75;64.57
70916;BME280;58557;50.982;-3.222;2023-02-20T11:11:45;101938.05;;;12.65;65.45
70916;BME280;58557;50.982;-3.222;2023-02-20T11:14:13;101932.92;;;12.47;64.30
70916;BME280;58557;50.982;-3.222;2023-02-20T11:16:42;101933.82;;;12.58;65.04
70916;BME280;58557;50.982;-3.222;2023-02-20T11:19:07;101926.40;;;13.60;62.03
70916;BME280;58557;50.982;-3.222;2023-02-20T11:21:36;101924.69;;;11.59;68.00
70916;BME280;58557;50.982;-3.222;2023-02-20T11:23:53;101921.63;;;11.72;67.87
70916;BME280;58557;50.982;-3.222;2023-02-20T11:26:29;101915.73;;;11.87;67.55
70916;BME280;58557;50.982;-3.222;2023-02-20T11:31:12;101912.44;;;12.52;66.40
70916;BME280;58557;50.982;-3.222;2023-02-20T11:33:42;101914.99;;;12.15;66.70
70916;BME280;58557;50.982;-3.222;2023-02-20T11:36:09;101915.38;;;12.45;68.93
70916;BME280;58557;50.982;-3.222;2023-02-20T11:38:31;101915.74;;;10.66;73.86
70916;BME280;58557;50.982;-3.222;2023-02-20T11:41:05;101914.33;;;11.05;71.38
70916;BME280;58557;50.982;-3.222;2023-02-20T11:43:22;101912.32;;;12.33;69.13
70916;BME280;58557;50.982;-3.222;2023-02-20T11:45:45;101912.32;;;11.85;70.65
70916;BME280;58557;50.982;-3.222;2023-02-20T11:48:12;101907.92;;;11.24;70.45
70916;BME280;58557;50.982;-3.222;2023-02-20T11:50:39;101907.93;;;8.73;80.55
70916;BME280;58557;50.982;-3.222;2023-02-20T11:53:04;101908.06;;;11.87;71.36
70916;BME280;58557;50.982;-3.222;2023-02-20T11:55:28;101907.45;;;11.43;70.96
70916;BME280;58557;50.982;-3.222;2023-02-20T11:57:55;101910.09;;;11.02;71.73
70916;BME280;58557;50.982;-3.222;2023-02-20T12:00:23;101896.85;;;11.62;69.01
70916;BME280;58557;50.982;-3.222;2023-02-20T12:02:48;101900.53;;;10.75;73.69
70916;BME280;58557;50.982;-3.222;2023-02-20T12:05:13;101899.98;;;12.26;69.74
70916;BME280;58557;50.982;-3.222;2023-02-20T12:07:41;101897.69;;;11.54;69.31
70916;BME280;58557;50.982;-3.222;2023-02-20T12:10:13;101891.40;;;12.02;69.56
70916;BME280;58557;50.982;-3.222;2023-02-20T12:12:32;101882.19;;;13.23;66.23
70916;BME280;58557;50.982;-3.222;2023-02-20T12:14:55;101874.72;;;12.25;65.52
70916;BME280;58557;50.982;-3.222;2023-02-20T12:17:27;101872.62;;;13.19;63.03
70916;BME280;58557;50.982;-3.222;2023-02-20T12:19:53;101878.68;;;11.36;69.60
70916;BME280;58557;50.982;-3.222;2023-02-20T12:22:19;101875.05;;;11.04;70.14
70916;BME280;58557;50.982;-3.222;2023-02-20T12:24:47;101870.82;;;12.17;67.82
70916;BME280;58557;50.982;-3.222;2023-02-20T12:27:14;101865.26;;;12.92;65.95
70916;BME280;58557;50.982;-3.222;2023-02-20T12:29:39;101863.57;;;11.78;68.29
70916;BME280;58557;50.982;-3.222;2023-02-20T12:32:04;101862.66;;;12.13;67.67
70916;BME280;58557;50.982;-3.222;2023-02-20T12:34:37;101859.91;;;12.70;62.87
70916;BME280;58557;50.982;-3.222;2023-02-20T12:36:49;101856.37;;;14.20;61.73
70916;BME280;58557;50.982;-3.222;2023-02-20T12:39:19;101848.98;;;12.98;61.49
70916;BME280;58557;50.982;-3.222;2023-02-20T12:41:48;101850.07;;;14.43;59.43
70916;BME280;58557;50.982;-3.222;2023-02-20T12:44:15;101844.88;;;13.98;58.28
70916;BME280;58557;50.982;-3.222;2023-02-20T12:46:35;101843.03;;;14.23;58.60
70916;BME280;58557;50.982;-3.222;2023-02-20T12:49:08;101836.17;;;13.80;59.40